Grundy, Virginia
Current Conditions -  °F | °C
As of 4:35 PM on Friday 19 Dec 2014 (Local Time) from KJFZ Reporting Station
Clear Clear  
Wind Chill: 36°   Ceiling: Unl
Heat Index: 36°   Visibility: 10mi
Dew Point: 21°   Wind: 3mph
Humidity: 56%   Direction: 280°W
Pressure: 30.12"   Gusts: NA
Location:  37.28°N, 82.1°W
Report Text: KJFZ 192135Z AUTO 28003KT 10SM CLR 02/M06 A3012 RMK AO2 T00211059
Loading
Personal Weather Stations






























Interactive Weather Map New forecast layout! Learn more

10-Day Weather Forecast

Advertisements
Track Severe Weather on mobile